createdAt,value
2022-11-08T00:01:53.054Z,10.06
2022-11-08T00:04:24.978Z,10.06
2022-11-08T00:07:15.010Z,10.04
2022-11-08T00:10:05.074Z,10.00
2022-11-08T00:12:55.635Z,10.01
2022-11-08T00:15:27.332Z,9.98
2022-11-08T00:17:58.972Z,9.96
2022-11-08T00:20:30.543Z,9.94
2022-11-08T00:23:02.179Z,9.93
2022-11-08T00:25:33.776Z,9.93
2022-11-08T00:28:05.412Z,9.96
2022-11-08T00:30:36.984Z,9.98
2022-11-08T00:33:08.729Z,10.01
2022-11-08T00:35:40.288Z,10.03
2022-11-08T00:38:11.947Z,10.00
2022-11-08T00:40:43.523Z,9.98
2022-11-08T00:43:15.138Z,9.94
2022-11-08T00:45:46.712Z,9.88
2022-11-08T00:48:18.602Z,9.81
2022-11-08T00:50:50.508Z,9.83
2022-11-08T00:53:22.406Z,9.84
2022-11-08T00:56:05.636Z,9.82
2022-11-08T00:58:37.436Z,9.81
2022-11-08T01:01:17.424Z,9.78
2022-11-08T01:03:49.344Z,9.77
2022-11-08T01:06:22.583Z,9.73
2022-11-08T01:08:56.220Z,9.70
2022-11-08T01:11:28.322Z,9.66
2022-11-08T01:14:01.415Z,9.61
2022-11-08T01:16:33.876Z,9.54
2022-11-08T01:19:05.581Z,9.49
2022-11-08T01:21:37.460Z,9.43
2022-11-08T01:24:09.191Z,9.40
2022-11-08T01:26:40.757Z,9.32
2022-11-08T01:29:12.373Z,9.27
2022-11-08T01:31:44.047Z,9.22
2022-11-08T01:34:15.679Z,9.21
2022-11-08T01:36:47.254Z,9.19
2022-11-08T01:39:18.864Z,9.22
2022-11-08T01:41:50.432Z,9.22
2022-11-08T01:44:22.905Z,9.21
2022-11-08T01:46:54.763Z,9.25
2022-11-08T01:49:40.093Z,9.28
2022-11-08T01:52:27.867Z,9.26
2022-11-08T01:55:23.079Z,9.23
2022-11-08T01:58:06.497Z,9.21
2022-11-08T02:00:39.675Z,9.19
2022-11-08T02:03:14.106Z,9.16
2022-11-08T02:05:46.393Z,9.13
2022-11-08T02:08:26.561Z,9.10
2022-11-08T02:10:58.316Z,9.02
2022-11-08T02:13:31.871Z,8.97
2022-11-08T02:16:10.331Z,8.93
2022-11-08T02:18:44.151Z,8.86
2022-11-08T02:21:28.347Z,8.83
2022-11-08T02:24:02.886Z,8.82
2022-11-08T02:26:35.851Z,8.81
2022-11-08T02:29:41.143Z,8.72
2022-11-08T02:32:12.787Z,8.66
2022-11-08T02:34:52.775Z,8.65
2022-11-08T02:37:26.767Z,8.68
2022-11-08T02:39:58.428Z,8.65
2022-11-08T02:42:30.072Z,8.62
2022-11-08T02:45:01.655Z,8.63
2022-11-08T02:47:33.294Z,8.66
2022-11-08T02:50:05.384Z,8.65
2022-11-08T02:52:36.978Z,8.63
2022-11-08T02:55:08.596Z,8.62
2022-11-08T02:57:40.206Z,8.57
2022-11-08T03:00:12.572Z,8.55
2022-11-08T03:02:44.197Z,8.56
2022-11-08T03:05:15.828Z,8.54
2022-11-08T03:07:47.860Z,8.52
2022-11-08T03:10:19.713Z,8.51
2022-11-08T03:13:03.035Z,8.52
2022-11-08T03:15:34.633Z,8.52
2022-11-08T03:18:06.391Z,8.54
2022-11-08T03:20:37.977Z,8.52
2022-11-08T03:23:09.674Z,8.51
2022-11-08T03:25:41.277Z,8.52
2022-11-08T03:28:12.953Z,8.51
2022-11-08T03:30:44.638Z,8.50
2022-11-08T03:33:16.235Z,8.50
2022-11-08T03:35:49.056Z,8.52
2022-11-08T03:38:20.966Z,8.52
2022-11-08T03:40:52.548Z,8.50
2022-11-08T03:43:24.651Z,8.47
2022-11-08T03:45:56.269Z,8.46
2022-11-08T03:48:29.863Z,8.41
2022-11-08T03:51:01.464Z,8.34
2022-11-08T03:53:33.063Z,8.31
2022-11-08T03:56:04.947Z,8.34
2022-11-08T03:58:36.600Z,8.24
2022-11-08T04:01:09.550Z,8.20
2022-11-08T04:03:41.261Z,8.20
2022-11-08T04:06:12.836Z,8.23
2022-11-08T04:08:44.465Z,8.26
2022-11-08T04:11:34.634Z,8.28
2022-11-08T04:14:24.877Z,8.31
2022-11-08T04:16:58.744Z,8.32
2022-11-08T04:19:49.359Z,8.32
2022-11-08T04:22:20.911Z,8.33
2022-11-08T04:24:53.803Z,8.34
2022-11-08T04:27:25.417Z,8.33
2022-11-08T04:29:57.110Z,8.32
2022-11-08T04:32:28.686Z,8.29
2022-11-08T04:35:00.285Z,8.29
2022-11-08T04:37:31.892Z,8.26
2022-11-08T04:40:06.699Z,8.26
2022-11-08T04:42:38.565Z,8.29
2022-11-08T04:45:10.956Z,8.30
2022-11-08T04:47:48.394Z,8.31
2022-11-08T04:50:20.289Z,8.33
2022-11-08T04:52:53.579Z,8.32
2022-11-08T04:55:25.308Z,8.33
2022-11-08T04:57:58.960Z,8.32
2022-11-08T05:00:30.560Z,8.31
2022-11-08T05:03:02.901Z,8.29
2022-11-08T05:05:34.739Z,8.27
2022-11-08T05:08:06.514Z,8.21
2022-11-08T05:10:38.103Z,8.16
2022-11-08T05:13:09.791Z,8.13
2022-11-08T05:15:43.372Z,8.10
2022-11-08T05:18:16.473Z,8.04
2022-11-08T05:21:12.662Z,7.98
2022-11-08T05:23:45.563Z,7.93
2022-11-08T05:26:18.936Z,7.91
2022-11-08T05:28:53.876Z,7.91
2022-11-08T05:31:25.605Z,7.87
2022-11-08T05:33:57.350Z,7.86
2022-11-08T05:36:29.191Z,7.83
2022-11-08T05:39:03.893Z,7.82
2022-11-08T05:41:35.477Z,7.80
2022-11-08T05:44:07.099Z,7.82
2022-11-08T05:46:38.693Z,7.87
2022-11-08T05:49:10.277Z,7.90
2022-11-08T05:51:41.834Z,7.87
2022-11-08T05:54:13.531Z,7.81
2022-11-08T05:56:45.175Z,7.72
2022-11-08T05:59:16.859Z,7.71
2022-11-08T06:01:48.482Z,7.73
2022-11-08T06:04:20.107Z,7.78
2022-11-08T06:06:51.744Z,7.81
2022-11-08T06:09:23.464Z,7.82
2022-11-08T06:11:55.063Z,7.85
2022-11-08T06:14:26.632Z,7.88
2022-11-08T06:16:58.221Z,7.90
2022-11-08T06:19:30.152Z,7.94
2022-11-08T06:22:01.824Z,7.96
2022-11-08T06:24:33.362Z,7.99
2022-11-08T06:27:04.992Z,8.05
2022-11-08T06:29:36.685Z,8.34
2022-11-08T06:32:10.427Z,9.25
2022-11-08T06:34:42.072Z,10.28
2022-11-08T06:37:14.097Z,11.21
2022-11-08T06:39:45.775Z,12.25
2022-11-08T06:42:17.432Z,13.26
2022-11-08T06:44:52.200Z,14.33
2022-11-08T06:47:26.824Z,15.59
2022-11-08T06:49:58.239Z,16.68
2022-11-08T06:52:29.850Z,17.59
2022-11-08T06:55:01.459Z,18.61
2022-11-08T06:57:33.601Z,19.65
2022-11-08T07:00:05.746Z,20.61
2022-11-08T07:02:37.476Z,21.28
2022-11-08T07:05:09.244Z,22.00
2022-11-08T07:07:40.945Z,23.01
2022-11-08T07:10:13.997Z,23.91
2022-11-08T07:12:45.886Z,24.82
2022-11-08T07:15:18.672Z,25.66
2022-11-08T07:17:50.319Z,26.45
2022-11-08T07:20:22.377Z,27.09
2022-11-08T07:22:57.556Z,27.47
2022-11-08T07:25:30.511Z,27.67
2022-11-08T07:28:04.557Z,28.03
2022-11-08T07:30:36.246Z,27.96
2022-11-08T07:33:07.837Z,27.75
2022-11-08T07:35:39.773Z,28.02
2022-11-08T07:38:11.354Z,28.40
2022-11-08T07:40:43.241Z,28.78
2022-11-08T07:43:15.131Z,29.31
2022-11-08T07:45:55.450Z,28.98
2022-11-08T07:48:28.955Z,28.85
2022-11-08T07:51:00.578Z,29.10
2022-11-08T07:53:32.238Z,29.87
2022-11-08T07:56:03.955Z,30.42
2022-11-08T07:58:35.842Z,30.39
2022-11-08T08:01:07.582Z,29.96
2022-11-08T08:03:39.243Z,29.89
2022-11-08T08:06:11.056Z,28.98
2022-11-08T08:08:42.792Z,28.43
2022-11-08T08:11:15.158Z,28.68
2022-11-08T08:13:46.744Z,28.67
2022-11-08T08:16:18.772Z,28.86
2022-11-08T08:18:56.455Z,29.31
2022-11-08T08:21:28.485Z,29.34
2022-11-08T08:24:00.091Z,29.54
2022-11-08T08:26:31.844Z,30.12
2022-11-08T08:29:03.496Z,30.18
2022-11-08T08:31:35.067Z,30.75
2022-11-08T08:34:09.561Z,31.39
2022-11-08T08:36:42.051Z,31.64
2022-11-08T08:39:13.872Z,31.94
2022-11-08T08:41:45.440Z,31.70
2022-11-08T08:44:17.161Z,31.43
2022-11-08T08:46:49.017Z,30.97
2022-11-08T08:49:21.561Z,30.97
2022-11-08T08:51:53.179Z,30.97
2022-11-08T08:54:29.338Z,30.65
2022-11-08T08:57:01.174Z,29.61
2022-11-08T09:02:24.358Z,28.59
2022-11-08T09:04:56.691Z,28.26
2022-11-08T09:07:28.265Z,27.89
2022-11-08T09:10:01.060Z,28.05
2022-11-08T09:12:33.044Z,28.36
2022-11-08T09:15:06.731Z,28.68
2022-11-08T09:17:38.332Z,28.41
2022-11-08T09:20:11.083Z,28.24
2022-11-08T09:22:42.709Z,28.45
2022-11-08T09:25:14.443Z,28.79
2022-11-08T09:27:46.384Z,28.98
2022-11-08T09:30:18.047Z,28.89
2022-11-08T09:33:02.131Z,28.63
2022-11-08T09:35:34.296Z,28.36
2022-11-08T09:38:05.886Z,27.92
2022-11-08T09:40:42.943Z,27.48
2022-11-08T09:43:46.384Z,27.76
2022-11-08T09:46:44.184Z,27.60
2022-11-08T09:49:22.642Z,27.51
2022-11-08T09:51:54.481Z,27.29
2022-11-08T09:54:40.668Z,27.32
2022-11-08T09:57:19.720Z,27.11
2022-11-08T09:59:58.556Z,26.66
2022-11-08T10:02:34.542Z,26.64
2022-11-08T10:05:12.703Z,26.95
2022-11-08T10:07:57.809Z,26.87
2022-11-08T10:11:12.301Z,26.57
2022-11-08T10:13:57.554Z,26.27
2022-11-08T10:17:07.153Z,26.40
2022-11-08T10:20:16.384Z,26.62
2022-11-08T10:23:26.726Z,26.49
2022-11-08T10:26:08.239Z,26.02
2022-11-08T10:29:07.247Z,25.45
2022-11-08T10:31:41.651Z,24.82
2022-11-08T10:34:17.857Z,24.53
2022-11-08T10:36:54.668Z,23.84
2022-11-08T10:39:36.524Z,23.37
2022-11-08T10:42:37.412Z,23.05
2022-11-08T10:45:10.325Z,22.38
2022-11-08T10:47:46.143Z,22.49
2022-11-08T10:50:22.627Z,22.37
2022-11-08T10:52:59.579Z,22.03
2022-11-08T10:55:39.214Z,21.99
2022-11-08T10:58:29.855Z,21.78
2022-11-08T11:01:19.679Z,21.68
2022-11-08T11:03:53.273Z,21.54
2022-11-08T11:06:31.000Z,21.60
2022-11-08T11:09:18.623Z,21.24
2022-11-08T11:11:58.439Z,21.17
2022-11-08T11:14:30.042Z,21.14
2022-11-08T11:17:07.542Z,21.43
2022-11-08T11:19:44.537Z,21.62
2022-11-08T11:22:16.159Z,21.95
2022-11-08T11:24:51.630Z,21.58
2022-11-08T11:27:31.068Z,21.32
2022-11-08T11:30:28.116Z,21.13
2022-11-08T11:33:04.814Z,21.30
2022-11-08T11:35:47.650Z,21.15
2022-11-08T11:38:34.698Z,21.24
2022-11-08T11:41:17.040Z,21.51
2022-11-08T11:44:07.130Z,21.34
2022-11-08T11:46:52.234Z,21.17
2022-11-08T11:49:25.643Z,21.24
2022-11-08T11:52:00.309Z,21.12
2022-11-08T11:54:34.811Z,21.01
2022-11-08T11:57:19.164Z,20.99
2022-11-08T12:00:09.597Z,20.68
2022-11-08T12:03:12.651Z,20.73
2022-11-08T12:06:06.107Z,20.92
2022-11-08T12:08:48.521Z,20.98
2022-11-08T12:11:35.035Z,20.90
2022-11-08T12:14:35.708Z,20.73
2022-11-08T12:17:25.602Z,20.77
2022-11-08T12:20:26.916Z,20.94
2022-11-08T12:23:07.768Z,21.02
2022-11-08T12:25:53.117Z,20.83
2022-11-08T12:28:47.149Z,20.69
2022-11-08T12:31:33.992Z,20.59
2022-11-08T12:34:30.753Z,20.38
2022-11-08T12:37:28.934Z,20.49
2022-11-08T12:40:07.070Z,20.31
2022-11-08T12:42:57.093Z,20.37
2022-11-08T12:45:56.874Z,20.41
2022-11-08T12:48:41.304Z,20.50
2022-11-08T12:51:27.698Z,20.50
2022-11-08T12:54:18.249Z,20.42
2022-11-08T12:56:52.594Z,20.42
2022-11-08T12:59:48.029Z,20.40
2022-11-08T13:02:26.705Z,20.23
2022-11-08T13:05:46.416Z,20.00
2022-11-08T13:08:36.160Z,19.63
2022-11-08T13:11:16.316Z,19.60
2022-11-08T13:13:52.969Z,19.44
2022-11-08T13:16:27.961Z,19.35
2022-11-08T13:19:01.424Z,19.30
2022-11-08T13:21:42.156Z,19.25
2022-11-08T13:24:38.397Z,19.22
2022-11-08T13:27:24.597Z,18.98
2022-11-08T13:30:02.486Z,18.91
2022-11-08T13:33:01.477Z,18.88
2022-11-08T13:35:41.130Z,18.77
2022-11-08T13:38:48.259Z,18.67
2022-11-08T13:41:22.930Z,18.66
2022-11-08T13:43:56.075Z,18.45
2022-11-08T13:46:30.415Z,18.40
2022-11-08T13:49:06.021Z,18.31
2022-11-08T13:51:42.057Z,18.26
2022-11-08T13:54:22.706Z,18.30
2022-11-08T13:56:57.835Z,18.28
2022-11-08T13:59:32.621Z,18.26
2022-11-08T14:02:29.601Z,18.22
2022-11-08T14:05:28.631Z,18.05
2022-11-08T14:08:21.829Z,17.97
2022-11-08T14:11:12.158Z,17.93
2022-11-08T14:14:28.422Z,17.82
2022-11-08T14:17:26.175Z,17.72
2022-11-08T14:20:30.139Z,17.57
2022-11-08T14:23:26.199Z,17.51
2022-11-08T14:25:59.967Z,17.41
2022-11-08T14:28:33.084Z,17.32
2022-11-08T14:31:08.007Z,17.24
2022-11-08T14:33:42.759Z,17.18
2022-11-08T14:36:17.276Z,17.20
2022-11-08T14:38:49.994Z,17.13
2022-11-08T14:41:29.272Z,17.09
2022-11-08T14:44:02.528Z,16.99
2022-11-08T14:46:39.976Z,16.96
2022-11-08T14:49:15.576Z,16.88
2022-11-08T14:51:47.459Z,16.82
2022-11-08T14:54:26.846Z,16.77
2022-11-08T14:56:58.450Z,16.73
2022-11-08T14:59:30.140Z,16.64
2022-11-08T15:02:01.776Z,16.58
2022-11-08T15:04:40.113Z,16.50
2022-11-08T15:07:11.911Z,16.38
2022-11-08T15:09:43.586Z,16.33
2022-11-08T15:12:18.521Z,16.24
2022-11-08T15:15:01.607Z,16.17
2022-11-08T15:17:38.332Z,16.07
2022-11-08T15:20:17.528Z,16.01
2022-11-08T15:22:52.879Z,15.91
2022-11-08T15:25:34.683Z,15.81
2022-11-08T15:28:25.495Z,15.71
2022-11-08T15:31:01.094Z,15.62
2022-11-08T15:33:36.026Z,15.56
2022-11-08T15:36:15.510Z,15.47
2022-11-08T15:38:50.065Z,15.41
2022-11-08T15:41:32.965Z,15.30
2022-11-08T15:44:14.363Z,15.21
2022-11-08T15:46:46.383Z,15.14
2022-11-08T15:49:28.196Z,15.10
2022-11-08T15:51:59.843Z,15.04
2022-11-08T15:54:31.425Z,14.98
2022-11-08T15:57:04.992Z,14.93
2022-11-08T15:59:37.600Z,14.86
2022-11-08T16:02:13.423Z,14.79
2022-11-08T16:04:45.035Z,14.72
2022-11-08T16:07:16.949Z,14.66
2022-11-08T16:09:48.601Z,14.59
2022-11-08T16:12:20.200Z,14.55
2022-11-08T16:14:52.030Z,14.49
2022-11-08T16:17:23.612Z,14.41
2022-11-08T16:19:55.197Z,14.35
2022-11-08T16:22:26.839Z,14.30
2022-11-08T16:24:58.383Z,14.22
2022-11-08T16:27:30.042Z,14.17
2022-11-08T16:30:01.704Z,14.08
2022-11-08T16:32:33.338Z,13.97
2022-11-08T16:35:05.284Z,13.86
2022-11-08T16:37:37.786Z,13.80
2022-11-08T16:40:17.040Z,13.72
2022-11-08T16:42:50.920Z,13.64
2022-11-08T16:45:43.423Z,13.53
2022-11-08T16:48:18.619Z,13.40
2022-11-08T16:50:50.496Z,13.31
2022-11-08T16:53:22.128Z,13.22
2022-11-08T16:55:53.823Z,13.13
2022-11-08T16:58:27.940Z,13.05
2022-11-08T17:01:09.966Z,12.98
2022-11-08T17:03:42.436Z,12.90
2022-11-08T17:06:16.603Z,12.85
2022-11-08T17:08:51.332Z,12.76
2022-11-08T17:11:23.500Z,12.70
2022-11-08T17:13:55.379Z,12.64
2022-11-08T17:16:27.290Z,12.58
2022-11-08T17:18:59.156Z,12.53
2022-11-08T17:21:44.117Z,12.47
2022-11-08T17:24:21.672Z,12.43
2022-11-08T17:26:54.038Z,12.37
2022-11-08T17:29:25.868Z,12.35
2022-11-08T17:31:57.503Z,12.29
2022-11-08T17:34:29.569Z,12.24
2022-11-08T17:37:01.189Z,12.18
2022-11-08T17:39:33.148Z,12.14
2022-11-08T17:42:09.198Z,12.10
2022-11-08T17:44:40.884Z,12.06
2022-11-08T17:47:12.696Z,12.00
2022-11-08T17:49:44.383Z,11.97
2022-11-08T17:52:19.594Z,11.94
2022-11-08T17:54:53.104Z,11.92
2022-11-08T17:57:24.907Z,11.87
2022-11-08T17:59:59.755Z,11.86
2022-11-08T18:02:31.867Z,11.84
2022-11-08T18:05:03.760Z,11.85
2022-11-08T18:07:35.389Z,11.86
2022-11-08T18:10:08.062Z,11.86
2022-11-08T18:12:40.259Z,11.87
2022-11-08T18:15:11.864Z,11.89
2022-11-08T18:20:24.948Z,11.94
2022-11-08T18:22:56.525Z,11.92
2022-11-08T18:25:28.240Z,11.90
2022-11-08T18:28:00.047Z,11.95
2022-11-08T18:30:35.873Z,11.96
2022-11-08T18:33:07.755Z,11.95
2022-11-08T18:35:39.832Z,11.95
2022-11-08T18:38:12.771Z,11.93
2022-11-08T18:40:45.539Z,11.90
2022-11-08T18:43:17.456Z,11.86
2022-11-08T18:45:49.209Z,11.81
2022-11-08T18:48:20.836Z,11.81
2022-11-08T18:50:52.496Z,11.83
2022-11-08T18:53:27.140Z,11.83
2022-11-08T18:55:58.735Z,11.81
2022-11-08T18:58:30.360Z,11.76
2022-11-08T19:01:02.280Z,11.75
2022-11-08T19:03:36.355Z,11.74
2022-11-08T19:06:08.544Z,11.73
2022-11-08T19:08:40.140Z,11.72
2022-11-08T19:11:13.169Z,11.70
2022-11-08T19:13:44.757Z,11.64
2022-11-08T19:16:19.018Z,11.59
2022-11-08T19:18:50.687Z,11.54
2022-11-08T19:21:25.079Z,11.49
2022-11-08T19:23:58.679Z,11.46
2022-11-08T19:26:32.851Z,11.46
2022-11-08T19:29:05.074Z,11.39
2022-11-08T19:31:37.038Z,11.37
2022-11-08T19:34:09.698Z,11.33
2022-11-08T19:36:43.640Z,11.31
2022-11-08T19:39:15.943Z,11.29
2022-11-08T19:41:47.731Z,11.26
2022-11-08T19:44:21.627Z,11.22
2022-11-08T19:46:53.258Z,11.17
2022-11-08T19:49:26.365Z,11.12
2022-11-08T19:51:57.971Z,11.07
2022-11-08T19:54:29.607Z,11.06
2022-11-08T19:57:05.729Z,11.00
2022-11-08T19:59:37.890Z,10.96
2022-11-08T20:02:09.728Z,10.92
2022-11-08T20:04:41.480Z,10.88
2022-11-08T20:07:14.813Z,10.87
2022-11-08T20:09:46.488Z,10.85
2022-11-08T20:12:18.193Z,10.76
2022-11-08T20:14:49.961Z,10.68
2022-11-08T20:17:21.620Z,10.64
2022-11-08T20:19:53.388Z,10.60
2022-11-08T20:22:25.092Z,10.57
2022-11-08T20:24:56.733Z,10.54
2022-11-08T20:27:30.432Z,10.52
2022-11-08T20:30:02.137Z,10.50
2022-11-08T20:32:33.819Z,10.48
2022-11-08T20:35:05.904Z,10.48
2022-11-08T20:37:37.513Z,10.45
2022-11-08T20:40:09.792Z,10.42
2022-11-08T20:42:42.452Z,10.38
2022-11-08T20:45:15.344Z,10.32
2022-11-08T20:47:48.234Z,10.28
2022-11-08T20:50:20.115Z,10.26
2022-11-08T20:52:51.742Z,10.24
2022-11-08T20:55:26.404Z,10.24
2022-11-08T20:57:58.085Z,10.16
2022-11-08T21:00:51.968Z,10.13
2022-11-08T21:03:22.397Z,10.15
2022-11-08T21:05:56.160Z,10.17
2022-11-08T21:08:58.417Z,10.18
2022-11-08T21:11:21.425Z,10.16
2022-11-08T21:13:53.165Z,10.09
2022-11-08T21:16:42.673Z,10.08
2022-11-08T21:19:16.914Z,10.00
2022-11-08T21:21:48.532Z,9.97
2022-11-08T21:24:21.333Z,9.95
2022-11-08T21:26:52.952Z,9.94
2022-11-08T21:29:24.598Z,9.92
2022-11-08T21:31:56.239Z,9.88
2022-11-08T21:34:32.620Z,9.85
2022-11-08T21:37:04.553Z,9.82
2022-11-08T21:39:36.725Z,9.80
2022-11-08T21:42:08.382Z,9.80
2022-11-08T21:44:40.032Z,9.70
2022-11-08T21:47:11.671Z,9.67
2022-11-08T21:49:43.339Z,9.63
2022-11-08T21:52:15.007Z,9.61
2022-11-08T21:54:46.645Z,9.61
2022-11-08T21:57:18.349Z,9.57
2022-11-08T21:59:52.786Z,9.56
2022-11-08T22:02:24.476Z,9.58
2022-11-08T22:04:56.144Z,9.54
2022-11-08T22:07:27.888Z,9.52
2022-11-08T22:09:59.929Z,9.53
2022-11-08T22:12:31.609Z,9.53
2022-11-08T22:15:03.558Z,9.51
2022-11-08T22:17:42.878Z,9.51
2022-11-08T22:20:21.920Z,9.51
2022-11-08T22:22:54.814Z,9.49
2022-11-08T22:25:28.501Z,9.49
2022-11-08T22:28:00.120Z,9.48
2022-11-08T22:30:33.786Z,9.48
2022-11-08T22:33:05.414Z,9.45
2022-11-08T22:35:37.048Z,9.43
2022-11-08T22:38:11.601Z,9.37
2022-11-08T22:40:45.511Z,9.36
2022-11-08T22:43:17.233Z,9.31
2022-11-08T22:45:48.888Z,9.31
2022-11-08T22:48:20.887Z,9.29
2022-11-08T22:50:52.661Z,9.27
2022-11-08T22:53:24.825Z,9.26
2022-11-08T22:55:56.857Z,9.23
2022-11-08T22:58:29.549Z,9.23
2022-11-08T23:01:01.235Z,9.24
2022-11-08T23:03:32.833Z,9.22
2022-11-08T23:06:04.878Z,9.20
2022-11-08T23:08:36.928Z,9.20
2022-11-08T23:11:27.304Z,9.19
2022-11-08T23:14:17.671Z,9.23
2022-11-08T23:16:49.315Z,9.25
2022-11-08T23:19:41.781Z,9.22
2022-11-08T23:22:34.837Z,9.25
2022-11-08T23:25:06.882Z,9.23
2022-11-08T23:27:57.211Z,9.19
2022-11-08T23:30:47.721Z,9.16
2022-11-08T23:33:19.508Z,9.16
2022-11-08T23:36:16.904Z,9.15
2022-11-08T23:38:48.759Z,9.14
2022-11-08T23:41:39.219Z,9.13
2022-11-08T23:44:26.725Z,9.12
2022-11-08T23:47:00.852Z,9.13
2022-11-08T23:49:32.487Z,9.11
2022-11-08T23:52:04.264Z,9.08
2022-11-08T23:54:35.841Z,9.03
2022-11-08T23:57:07.428Z,9.02
2022-11-08T23:59:39.009Z,9.02
